sensor_id;sensor_type;location;lat;lon;timestamp;P1;durP1;ratioP1;P2;durP2;ratioP2
61590;SDS011;57639;52.410;-1.966;2022-10-16T00:01:58;2.67;;;0.80;;
61590;SDS011;57639;52.410;-1.966;2022-10-16T00:08:12;2.15;;;0.80;;
61590;SDS011;57639;52.410;-1.966;2022-10-16T00:11:21;1.75;;;0.70;;
61590;SDS011;57639;52.410;-1.966;2022-10-16T00:14:30;2.58;;;0.73;;
61590;SDS011;57639;52.410;-1.966;2022-10-16T00:17:40;2.42;;;0.80;;
61590;SDS011;57639;52.410;-1.966;2022-10-16T00:23:56;2.35;;;0.80;;
61590;SDS011;57639;52.410;-1.966;2022-10-16T00:27:05;3.05;;;0.75;;
61590;SDS011;57639;52.410;-1.966;2022-10-16T00:30:12;1.83;;;0.68;;
61590;SDS011;57639;52.410;-1.966;2022-10-16T00:33:23;1.73;;;0.73;;
61590;SDS011;57639;52.410;-1.966;2022-10-16T00:36:30;2.97;;;0.70;;
61590;SDS011;57639;52.410;-1.966;2022-10-16T00:39:38;1.67;;;0.70;;
61590;SDS011;57639;52.410;-1.966;2022-10-16T00:42:45;1.95;;;0.82;;
61590;SDS011;57639;52.410;-1.966;2022-10-16T00:45:53;1.85;;;0.77;;
61590;SDS011;57639;52.410;-1.966;2022-10-16T00:49:04;2.75;;;0.57;;
61590;SDS011;57639;52.410;-1.966;2022-10-16T00:52:13;1.80;;;0.77;;
61590;SDS011;57639;52.410;-1.966;2022-10-16T00:55:21;2.38;;;0.70;;
61590;SDS011;57639;52.410;-1.966;2022-10-16T00:58:30;3.35;;;0.85;;
61590;SDS011;57639;52.410;-1.966;2022-10-16T01:01:37;2.58;;;0.85;;
61590;SDS011;57639;52.410;-1.966;2022-10-16T01:04:48;2.22;;;0.70;;
61590;SDS011;57639;52.410;-1.966;2022-10-16T01:07:58;1.40;;;0.52;;
61590;SDS011;57639;52.410;-1.966;2022-10-16T01:11:12;2.30;;;0.70;;
61590;SDS011;57639;52.410;-1.966;2022-10-16T01:14:31;2.30;;;0.55;;
61590;SDS011;57639;52.410;-1.966;2022-10-16T01:17:47;3.35;;;0.73;;
61590;SDS011;57639;52.410;-1.966;2022-10-16T01:21:03;2.58;;;0.70;;
61590;SDS011;57639;52.410;-1.966;2022-10-16T01:24:15;3.40;;;0.80;;
61590;SDS011;57639;52.410;-1.966;2022-10-16T01:27:30;2.08;;;0.60;;
61590;SDS011;57639;52.410;-1.966;2022-10-16T01:30:38;2.97;;;0.90;;
61590;SDS011;57639;52.410;-1.966;2022-10-16T01:33:51;2.35;;;0.70;;
61590;SDS011;57639;52.410;-1.966;2022-10-16T01:37:04;1.83;;;0.63;;
61590;SDS011;57639;52.410;-1.966;2022-10-16T01:40:16;2.60;;;0.68;;
61590;SDS011;57639;52.410;-1.966;2022-10-16T01:43:30;1.85;;;0.63;;
61590;SDS011;57639;52.410;-1.966;2022-10-16T01:46:43;3.00;;;1.02;;
61590;SDS011;57639;52.410;-1.966;2022-10-16T01:49:54;3.35;;;0.68;;
61590;SDS011;57639;52.410;-1.966;2022-10-16T01:53:03;2.67;;;0.70;;
61590;SDS011;57639;52.410;-1.966;2022-10-16T01:56:13;2.28;;;0.60;;
61590;SDS011;57639;52.410;-1.966;2022-10-16T01:59:26;2.30;;;0.68;;
61590;SDS011;57639;52.410;-1.966;2022-10-16T02:02:37;1.83;;;0.60;;
61590;SDS011;57639;52.410;-1.966;2022-10-16T02:05:47;3.10;;;0.90;;
61590;SDS011;57639;52.410;-1.966;2022-10-16T02:08:57;3.03;;;0.80;;
61590;SDS011;57639;52.410;-1.966;2022-10-16T02:12:08;2.17;;;0.70;;
61590;SDS011;57639;52.410;-1.966;2022-10-16T02:15:21;2.47;;;0.80;;
61590;SDS011;57639;52.410;-1.966;2022-10-16T02:18:28;2.40;;;0.73;;
61590;SDS011;57639;52.410;-1.966;2022-10-16T02:21:38;2.10;;;0.60;;
61590;SDS011;57639;52.410;-1.966;2022-10-16T02:24:50;1.67;;;0.73;;
61590;SDS011;57639;52.410;-1.966;2022-10-16T02:28:02;1.77;;;0.70;;
61590;SDS011;57639;52.410;-1.966;2022-10-16T02:31:20;3.50;;;0.70;;
61590;SDS011;57639;52.410;-1.966;2022-10-16T02:34:32;1.40;;;0.60;;
61590;SDS011;57639;52.410;-1.966;2022-10-16T02:37:40;2.72;;;0.57;;
61590;SDS011;57639;52.410;-1.966;2022-10-16T02:40:48;2.33;;;0.63;;
61590;SDS011;57639;52.410;-1.966;2022-10-16T02:43:56;1.80;;;0.63;;
61590;SDS011;57639;52.410;-1.966;2022-10-16T02:47:06;2.03;;;0.52;;
61590;SDS011;57639;52.410;-1.966;2022-10-16T02:50:19;1.60;;;0.60;;
61590;SDS011;57639;52.410;-1.966;2022-10-16T02:53:28;2.67;;;0.70;;
61590;SDS011;57639;52.410;-1.966;2022-10-16T02:56:36;1.85;;;0.55;;
61590;SDS011;57639;52.410;-1.966;2022-10-16T02:59:43;1.83;;;0.63;;
61590;SDS011;57639;52.410;-1.966;2022-10-16T03:02:53;2.17;;;0.60;;
61590;SDS011;57639;52.410;-1.966;2022-10-16T03:06:00;1.48;;;0.60;;
61590;SDS011;57639;52.410;-1.966;2022-10-16T03:09:08;2.08;;;0.57;;
61590;SDS011;57639;52.410;-1.966;2022-10-16T03:12:15;1.80;;;0.50;;
61590;SDS011;57639;52.410;-1.966;2022-10-16T03:15:23;3.47;;;0.80;;
61590;SDS011;57639;52.410;-1.966;2022-10-16T03:18:34;2.00;;;0.70;;
61590;SDS011;57639;52.410;-1.966;2022-10-16T03:21:41;2.55;;;0.80;;
61590;SDS011;57639;52.410;-1.966;2022-10-16T03:24:49;1.92;;;0.63;;
61590;SDS011;57639;52.410;-1.966;2022-10-16T03:27:56;2.50;;;0.73;;
61590;SDS011;57639;52.410;-1.966;2022-10-16T03:31:04;3.97;;;0.80;;
61590;SDS011;57639;52.410;-1.966;2022-10-16T03:34:14;3.75;;;1.00;;
61590;SDS011;57639;52.410;-1.966;2022-10-16T03:40:29;2.80;;;0.70;;
61590;SDS011;57639;52.410;-1.966;2022-10-16T03:43:37;1.65;;;0.50;;
61590;SDS011;57639;52.410;-1.966;2022-10-16T03:46:45;2.88;;;0.60;;
61590;SDS011;57639;52.410;-1.966;2022-10-16T03:49:55;1.52;;;0.60;;
61590;SDS011;57639;52.410;-1.966;2022-10-16T03:53:03;2.60;;;0.68;;
61590;SDS011;57639;52.410;-1.966;2022-10-16T03:56:10;1.75;;;0.40;;
61590;SDS011;57639;52.410;-1.966;2022-10-16T03:59:18;1.20;;;0.50;;
61590;SDS011;57639;52.410;-1.966;2022-10-16T04:02:25;1.35;;;0.55;;
61590;SDS011;57639;52.410;-1.966;2022-10-16T04:05:35;1.73;;;0.60;;
61590;SDS011;57639;52.410;-1.966;2022-10-16T04:08:43;2.63;;;0.50;;
61590;SDS011;57639;52.410;-1.966;2022-10-16T04:11:51;1.52;;;0.60;;
61590;SDS011;57639;52.410;-1.966;2022-10-16T04:14:59;2.13;;;0.63;;
61590;SDS011;57639;52.410;-1.966;2022-10-16T04:18:06;1.02;;;0.50;;
61590;SDS011;57639;52.410;-1.966;2022-10-16T04:21:16;1.65;;;0.45;;
61590;SDS011;57639;52.410;-1.966;2022-10-16T04:27:31;1.90;;;0.70;;
61590;SDS011;57639;52.410;-1.966;2022-10-16T04:30:39;1.88;;;0.60;;
61590;SDS011;57639;52.410;-1.966;2022-10-16T04:33:47;1.10;;;0.40;;
61590;SDS011;57639;52.410;-1.966;2022-10-16T04:36:57;1.90;;;0.50;;
61590;SDS011;57639;52.410;-1.966;2022-10-16T04:43:13;2.40;;;0.50;;
61590;SDS011;57639;52.410;-1.966;2022-10-16T04:46:20;1.63;;;0.50;;
61590;SDS011;57639;52.410;-1.966;2022-10-16T04:49:28;0.90;;;0.32;;
61590;SDS011;57639;52.410;-1.966;2022-10-16T04:52:38;0.88;;;0.40;;
61590;SDS011;57639;52.410;-1.966;2022-10-16T04:55:46;1.27;;;0.40;;
61590;SDS011;57639;52.410;-1.966;2022-10-16T04:58:53;1.95;;;0.63;;
61590;SDS011;57639;52.410;-1.966;2022-10-16T05:02:01;1.02;;;0.30;;
61590;SDS011;57639;52.410;-1.966;2022-10-16T05:05:08;1.88;;;0.50;;
61590;SDS011;57639;52.410;-1.966;2022-10-16T05:08:18;2.58;;;0.50;;
61590;SDS011;57639;52.410;-1.966;2022-10-16T05:11:23;1.30;;;0.40;;
61590;SDS011;57639;52.410;-1.966;2022-10-16T05:14:31;2.17;;;0.43;;
61590;SDS011;57639;52.410;-1.966;2022-10-16T05:17:38;1.15;;;0.45;;
61590;SDS011;57639;52.410;-1.966;2022-10-16T05:20:47;2.00;;;0.47;;
61590;SDS011;57639;52.410;-1.966;2022-10-16T05:23:57;2.10;;;0.50;;
61590;SDS011;57639;52.410;-1.966;2022-10-16T05:27:05;1.67;;;0.55;;
61590;SDS011;57639;52.410;-1.966;2022-10-16T05:30:12;1.52;;;0.45;;
61590;SDS011;57639;52.410;-1.966;2022-10-16T05:33:19;2.03;;;0.68;;
61590;SDS011;57639;52.410;-1.966;2022-10-16T05:36:27;0.88;;;0.38;;
61590;SDS011;57639;52.410;-1.966;2022-10-16T05:39:37;2.33;;;0.30;;
61590;SDS011;57639;52.410;-1.966;2022-10-16T05:42:44;1.67;;;0.40;;
61590;SDS011;57639;52.410;-1.966;2022-10-16T05:45:55;1.83;;;0.50;;
61590;SDS011;57639;52.410;-1.966;2022-10-16T05:49:04;1.73;;;0.30;;
61590;SDS011;57639;52.410;-1.966;2022-10-16T05:52:11;2.17;;;0.43;;
61590;SDS011;57639;52.410;-1.966;2022-10-16T05:55:22;1.83;;;0.45;;
61590;SDS011;57639;52.410;-1.966;2022-10-16T05:58:30;1.20;;;0.30;;
61590;SDS011;57639;52.410;-1.966;2022-10-16T06:01:39;1.70;;;0.60;;
61590;SDS011;57639;52.410;-1.966;2022-10-16T06:04:46;1.35;;;0.40;;
61590;SDS011;57639;52.410;-1.966;2022-10-16T06:07:54;1.60;;;0.60;;
61590;SDS011;57639;52.410;-1.966;2022-10-16T06:11:04;5.25;;;0.65;;
61590;SDS011;57639;52.410;-1.966;2022-10-16T06:14:13;3.03;;;0.52;;
61590;SDS011;57639;52.410;-1.966;2022-10-16T06:17:20;3.67;;;0.50;;
61590;SDS011;57639;52.410;-1.966;2022-10-16T06:20:28;1.52;;;0.60;;
61590;SDS011;57639;52.410;-1.966;2022-10-16T06:23:36;2.08;;;0.40;;
61590;SDS011;57639;52.410;-1.966;2022-10-16T06:26:46;5.13;;;0.70;;
61590;SDS011;57639;52.410;-1.966;2022-10-16T06:33:01;2.67;;;0.50;;
61590;SDS011;57639;52.410;-1.966;2022-10-16T06:36:09;2.60;;;0.60;;
61590;SDS011;57639;52.410;-1.966;2022-10-16T06:39:17;3.10;;;0.50;;
61590;SDS011;57639;52.410;-1.966;2022-10-16T06:42:28;2.42;;;0.55;;
61590;SDS011;57639;52.410;-1.966;2022-10-16T06:45:35;3.65;;;0.63;;
61590;SDS011;57639;52.410;-1.966;2022-10-16T06:48:43;1.88;;;0.47;;
61590;SDS011;57639;52.410;-1.966;2022-10-16T06:51:50;1.45;;;0.60;;
61590;SDS011;57639;52.410;-1.966;2022-10-16T06:54:58;2.00;;;0.50;;
61590;SDS011;57639;52.410;-1.966;2022-10-16T06:58:09;2.35;;;0.60;;
61590;SDS011;57639;52.410;-1.966;2022-10-16T07:01:16;2.05;;;0.68;;
61590;SDS011;57639;52.410;-1.966;2022-10-16T07:04:27;1.50;;;0.50;;
61590;SDS011;57639;52.410;-1.966;2022-10-16T07:07:35;1.92;;;0.60;;
61590;SDS011;57639;52.410;-1.966;2022-10-16T07:10:42;3.40;;;0.50;;
61590;SDS011;57639;52.410;-1.966;2022-10-16T07:13:52;2.58;;;0.55;;
61590;SDS011;57639;52.410;-1.966;2022-10-16T07:17:00;3.20;;;0.50;;
61590;SDS011;57639;52.410;-1.966;2022-10-16T07:20:09;1.40;;;0.70;;
61590;SDS011;57639;52.410;-1.966;2022-10-16T07:23:16;1.52;;;0.40;;
61590;SDS011;57639;52.410;-1.966;2022-10-16T07:26:24;1.45;;;0.47;;
61590;SDS011;57639;52.410;-1.966;2022-10-16T07:29:36;2.95;;;0.77;;
61590;SDS011;57639;52.410;-1.966;2022-10-16T07:32:44;0.95;;;0.35;;
61590;SDS011;57639;52.410;-1.966;2022-10-16T07:35:52;1.25;;;0.50;;
61590;SDS011;57639;52.410;-1.966;2022-10-16T07:39:17;2.15;;;0.60;;
61590;SDS011;57639;52.410;-1.966;2022-10-16T07:42:25;1.42;;;0.55;;
61590;SDS011;57639;52.410;-1.966;2022-10-16T07:45:36;3.17;;;0.70;;
61590;SDS011;57639;52.410;-1.966;2022-10-16T07:48:45;2.10;;;0.60;;
61590;SDS011;57639;52.410;-1.966;2022-10-16T07:51:52;0.68;;;0.30;;
61590;SDS011;57639;52.410;-1.966;2022-10-16T07:55:00;2.05;;;0.63;;
61590;SDS011;57639;52.410;-1.966;2022-10-16T07:58:08;1.48;;;0.50;;
61590;SDS011;57639;52.410;-1.966;2022-10-16T08:01:18;2.00;;;0.60;;
61590;SDS011;57639;52.410;-1.966;2022-10-16T08:04:26;2.67;;;0.77;;
61590;SDS011;57639;52.410;-1.966;2022-10-16T08:07:34;1.20;;;0.60;;
61590;SDS011;57639;52.410;-1.966;2022-10-16T08:10:41;1.90;;;0.50;;
61590;SDS011;57639;52.410;-1.966;2022-10-16T08:13:48;1.17;;;0.35;;
61590;SDS011;57639;52.410;-1.966;2022-10-16T08:16:59;1.25;;;0.50;;
61590;SDS011;57639;52.410;-1.966;2022-10-16T08:20:08;1.88;;;0.57;;
61590;SDS011;57639;52.410;-1.966;2022-10-16T08:23:16;1.85;;;0.55;;
61590;SDS011;57639;52.410;-1.966;2022-10-16T08:26:24;1.08;;;0.50;;
61590;SDS011;57639;52.410;-1.966;2022-10-16T08:29:33;1.70;;;0.40;;
61590;SDS011;57639;52.410;-1.966;2022-10-16T08:32:43;1.00;;;0.40;;
61590;SDS011;57639;52.410;-1.966;2022-10-16T08:38:57;0.88;;;0.40;;
61590;SDS011;57639;52.410;-1.966;2022-10-16T08:42:08;1.98;;;0.57;;
61590;SDS011;57639;52.410;-1.966;2022-10-16T08:45:21;1.88;;;0.50;;
61590;SDS011;57639;52.410;-1.966;2022-10-16T08:48:44;1.40;;;0.47;;
61590;SDS011;57639;52.410;-1.966;2022-10-16T08:51:53;1.73;;;0.60;;
61590;SDS011;57639;52.410;-1.966;2022-10-16T08:55:04;1.25;;;0.45;;
61590;SDS011;57639;52.410;-1.966;2022-10-16T08:58:12;2.72;;;0.50;;
61590;SDS011;57639;52.410;-1.966;2022-10-16T09:01:22;1.70;;;0.52;;
61590;SDS011;57639;52.410;-1.966;2022-10-16T09:04:46;2.53;;;0.50;;
61590;SDS011;57639;52.410;-1.966;2022-10-16T09:08:18;0.95;;;0.43;;
61590;SDS011;57639;52.410;-1.966;2022-10-16T09:11:38;2.03;;;0.63;;
61590;SDS011;57639;52.410;-1.966;2022-10-16T09:14:58;1.55;;;0.63;;
61590;SDS011;57639;52.410;-1.966;2022-10-16T09:18:12;1.50;;;0.47;;
61590;SDS011;57639;52.410;-1.966;2022-10-16T09:21:27;1.30;;;0.68;;
61590;SDS011;57639;52.410;-1.966;2022-10-16T09:24:37;1.27;;;0.50;;
61590;SDS011;57639;52.410;-1.966;2022-10-16T09:27:45;1.92;;;0.50;;
61590;SDS011;57639;52.410;-1.966;2022-10-16T09:30:55;1.60;;;0.60;;
61590;SDS011;57639;52.410;-1.966;2022-10-16T09:34:03;1.77;;;0.50;;
61590;SDS011;57639;52.410;-1.966;2022-10-16T09:37:17;1.27;;;0.57;;
61590;SDS011;57639;52.410;-1.966;2022-10-16T09:40:26;3.17;;;0.70;;
61590;SDS011;57639;52.410;-1.966;2022-10-16T09:43:39;1.45;;;0.55;;
61590;SDS011;57639;52.410;-1.966;2022-10-16T09:46:48;0.88;;;0.38;;
61590;SDS011;57639;52.410;-1.966;2022-10-16T09:49:57;1.10;;;0.60;;
61590;SDS011;57639;52.410;-1.966;2022-10-16T09:53:12;1.02;;;0.50;;
61590;SDS011;57639;52.410;-1.966;2022-10-16T09:56:26;1.92;;;0.47;;
61590;SDS011;57639;52.410;-1.966;2022-10-16T09:59:45;1.48;;;0.70;;
61590;SDS011;57639;52.410;-1.966;2022-10-16T10:02:53;1.35;;;0.40;;
61590;SDS011;57639;52.410;-1.966;2022-10-16T10:06:03;1.27;;;0.50;;
61590;SDS011;57639;52.410;-1.966;2022-10-16T10:09:26;1.25;;;0.40;;
61590;SDS011;57639;52.410;-1.966;2022-10-16T10:12:44;1.85;;;0.50;;
61590;SDS011;57639;52.410;-1.966;2022-10-16T10:15:52;1.77;;;0.60;;
61590;SDS011;57639;52.410;-1.966;2022-10-16T10:19:02;1.15;;;0.52;;
61590;SDS011;57639;52.410;-1.966;2022-10-16T10:22:19;1.58;;;0.50;;
61590;SDS011;57639;52.410;-1.966;2022-10-16T10:25:36;2.85;;;0.70;;
61590;SDS011;57639;52.410;-1.966;2022-10-16T10:28:51;2.67;;;0.50;;
61590;SDS011;57639;52.410;-1.966;2022-10-16T10:32:06;1.20;;;0.60;;
61590;SDS011;57639;52.410;-1.966;2022-10-16T10:35:26;1.60;;;0.50;;
61590;SDS011;57639;52.410;-1.966;2022-10-16T10:38:43;2.38;;;0.50;;
61590;SDS011;57639;52.410;-1.966;2022-10-16T10:42:05;0.85;;;0.40;;
61590;SDS011;57639;52.410;-1.966;2022-10-16T10:45:26;1.10;;;0.40;;
61590;SDS011;57639;52.410;-1.966;2022-10-16T10:48:44;1.70;;;0.40;;
61590;SDS011;57639;52.410;-1.966;2022-10-16T10:52:02;1.17;;;0.60;;
61590;SDS011;57639;52.410;-1.966;2022-10-16T10:55:22;1.77;;;0.50;;
61590;SDS011;57639;52.410;-1.966;2022-10-16T10:58:42;1.38;;;0.45;;
61590;SDS011;57639;52.410;-1.966;2022-10-16T11:02:10;1.05;;;0.60;;
61590;SDS011;57639;52.410;-1.966;2022-10-16T11:05:29;1.10;;;0.47;;
61590;SDS011;57639;52.410;-1.966;2022-10-16T11:08:45;1.67;;;0.60;;
61590;SDS011;57639;52.410;-1.966;2022-10-16T11:12:05;1.45;;;0.47;;
61590;SDS011;57639;52.410;-1.966;2022-10-16T11:15:21;2.03;;;0.50;;
61590;SDS011;57639;52.410;-1.966;2022-10-16T11:18:38;1.73;;;0.50;;
61590;SDS011;57639;52.410;-1.966;2022-10-16T11:21:54;1.40;;;0.50;;
61590;SDS011;57639;52.410;-1.966;2022-10-16T11:25:11;1.65;;;0.57;;
61590;SDS011;57639;52.410;-1.966;2022-10-16T11:28:23;2.33;;;0.45;;
61590;SDS011;57639;52.410;-1.966;2022-10-16T11:31:38;1.15;;;0.50;;
61590;SDS011;57639;52.410;-1.966;2022-10-16T11:34:49;1.20;;;0.57;;
61590;SDS011;57639;52.410;-1.966;2022-10-16T11:38:00;2.05;;;0.52;;
61590;SDS011;57639;52.410;-1.966;2022-10-16T11:41:16;1.55;;;0.40;;
61590;SDS011;57639;52.410;-1.966;2022-10-16T11:44:35;2.70;;;0.75;;
61590;SDS011;57639;52.410;-1.966;2022-10-16T11:48:00;2.17;;;0.45;;
61590;SDS011;57639;52.410;-1.966;2022-10-16T11:51:14;1.52;;;0.50;;
61590;SDS011;57639;52.410;-1.966;2022-10-16T11:54:29;1.00;;;0.30;;
61590;SDS011;57639;52.410;-1.966;2022-10-16T11:57:44;1.65;;;0.40;;
61590;SDS011;57639;52.410;-1.966;2022-10-16T12:00:57;1.25;;;0.50;;
61590;SDS011;57639;52.410;-1.966;2022-10-16T12:04:19;0.98;;;0.40;;
61590;SDS011;57639;52.410;-1.966;2022-10-16T12:07:32;1.30;;;0.50;;
61590;SDS011;57639;52.410;-1.966;2022-10-16T12:10:44;1.70;;;0.60;;
61590;SDS011;57639;52.410;-1.966;2022-10-16T12:14:03;1.13;;;0.43;;
61590;SDS011;57639;52.410;-1.966;2022-10-16T12:17:25;1.88;;;0.60;;
61590;SDS011;57639;52.410;-1.966;2022-10-16T12:20:43;2.97;;;0.45;;
61590;SDS011;57639;52.410;-1.966;2022-10-16T12:24:19;1.08;;;0.40;;
61590;SDS011;57639;52.410;-1.966;2022-10-16T12:27:34;1.20;;;0.50;;
61590;SDS011;57639;52.410;-1.966;2022-10-16T12:30:42;1.38;;;0.40;;
61590;SDS011;57639;52.410;-1.966;2022-10-16T12:33:59;3.28;;;0.50;;
61590;SDS011;57639;52.410;-1.966;2022-10-16T12:37:12;0.88;;;0.43;;
61590;SDS011;57639;52.410;-1.966;2022-10-16T12:40:29;0.40;;;0.30;;
61590;SDS011;57639;52.410;-1.966;2022-10-16T12:43:40;1.15;;;0.50;;
61590;SDS011;57639;52.410;-1.966;2022-10-16T12:46:48;1.98;;;0.50;;
61590;SDS011;57639;52.410;-1.966;2022-10-16T12:49:56;1.38;;;0.40;;
61590;SDS011;57639;52.410;-1.966;2022-10-16T12:53:21;1.40;;;0.30;;
61590;SDS011;57639;52.410;-1.966;2022-10-16T12:56:34;1.05;;;0.32;;
61590;SDS011;57639;52.410;-1.966;2022-10-16T13:06:42;1.15;;;0.43;;
61590;SDS011;57639;52.410;-1.966;2022-10-16T13:10:00;1.60;;;0.55;;
61590;SDS011;57639;52.410;-1.966;2022-10-16T13:13:23;1.63;;;0.30;;
61590;SDS011;57639;52.410;-1.966;2022-10-16T13:16:45;1.60;;;0.50;;
61590;SDS011;57639;52.410;-1.966;2022-10-16T13:20:06;0.50;;;0.30;;
61590;SDS011;57639;52.410;-1.966;2022-10-16T13:23:25;2.10;;;0.50;;
61590;SDS011;57639;52.410;-1.966;2022-10-16T13:26:43;2.70;;;0.60;;
61590;SDS011;57639;52.410;-1.966;2022-10-16T13:30:00;0.93;;;0.30;;
61590;SDS011;57639;52.410;-1.966;2022-10-16T13:33:12;1.10;;;0.40;;
61590;SDS011;57639;52.410;-1.966;2022-10-16T13:36:22;0.90;;;0.30;;
61590;SDS011;57639;52.410;-1.966;2022-10-16T13:39:31;1.00;;;0.50;;
61590;SDS011;57639;52.410;-1.966;2022-10-16T13:42:41;0.63;;;0.40;;
61590;SDS011;57639;52.410;-1.966;2022-10-16T13:45:52;1.02;;;0.35;;
61590;SDS011;57639;52.410;-1.966;2022-10-16T13:49:01;0.82;;;0.43;;
61590;SDS011;57639;52.410;-1.966;2022-10-16T13:52:19;2.20;;;0.40;;
61590;SDS011;57639;52.410;-1.966;2022-10-16T13:55:28;1.55;;;0.50;;
61590;SDS011;57639;52.410;-1.966;2022-10-16T13:58:39;1.10;;;0.43;;
61590;SDS011;57639;52.410;-1.966;2022-10-16T14:01:47;1.48;;;0.35;;
61590;SDS011;57639;52.410;-1.966;2022-10-16T14:05:00;1.95;;;0.43;;
61590;SDS011;57639;52.410;-1.966;2022-10-16T14:08:22;1.83;;;0.40;;
61590;SDS011;57639;52.410;-1.966;2022-10-16T14:11:43;0.80;;;0.30;;
61590;SDS011;57639;52.410;-1.966;2022-10-16T14:15:04;1.80;;;0.50;;
61590;SDS011;57639;52.410;-1.966;2022-10-16T14:18:16;1.55;;;0.55;;
61590;SDS011;57639;52.410;-1.966;2022-10-16T14:21:26;1.17;;;0.40;;
61590;SDS011;57639;52.410;-1.966;2022-10-16T14:24:35;1.75;;;0.50;;
61590;SDS011;57639;52.410;-1.966;2022-10-16T14:27:43;1.90;;;0.50;;
61590;SDS011;57639;52.410;-1.966;2022-10-16T14:30:55;1.92;;;0.40;;
61590;SDS011;57639;52.410;-1.966;2022-10-16T14:34:03;2.08;;;0.40;;
61590;SDS011;57639;52.410;-1.966;2022-10-16T14:37:14;1.25;;;0.30;;
61590;SDS011;57639;52.410;-1.966;2022-10-16T14:43:39;2.13;;;0.50;;
61590;SDS011;57639;52.410;-1.966;2022-10-16T14:46:57;1.25;;;0.40;;
61590;SDS011;57639;52.410;-1.966;2022-10-16T14:50:08;1.10;;;0.40;;
61590;SDS011;57639;52.410;-1.966;2022-10-16T14:53:21;1.23;;;0.50;;
61590;SDS011;57639;52.410;-1.966;2022-10-16T14:56:42;1.33;;;0.50;;
61590;SDS011;57639;52.410;-1.966;2022-10-16T14:59:54;2.05;;;0.50;;
61590;SDS011;57639;52.410;-1.966;2022-10-16T15:03:08;1.85;;;0.40;;
61590;SDS011;57639;52.410;-1.966;2022-10-16T15:06:16;3.05;;;0.70;;
61590;SDS011;57639;52.410;-1.966;2022-10-16T15:09:30;1.25;;;0.40;;
61590;SDS011;57639;52.410;-1.966;2022-10-16T15:12:54;2.58;;;0.75;;
61590;SDS011;57639;52.410;-1.966;2022-10-16T15:16:07;1.90;;;0.50;;
61590;SDS011;57639;52.410;-1.966;2022-10-16T15:19:27;1.15;;;0.35;;
61590;SDS011;57639;52.410;-1.966;2022-10-16T15:23:05;3.55;;;0.60;;
61590;SDS011;57639;52.410;-1.966;2022-10-16T15:26:26;3.22;;;0.63;;
61590;SDS011;57639;52.410;-1.966;2022-10-16T15:29:40;1.55;;;0.50;;
61590;SDS011;57639;52.410;-1.966;2022-10-16T15:32:53;1.90;;;0.52;;
61590;SDS011;57639;52.410;-1.966;2022-10-16T15:36:09;2.45;;;0.70;;
61590;SDS011;57639;52.410;-1.966;2022-10-16T15:39:23;4.25;;;0.75;;
61590;SDS011;57639;52.410;-1.966;2022-10-16T15:42:34;2.88;;;0.60;;
61590;SDS011;57639;52.410;-1.966;2022-10-16T15:49:09;1.48;;;0.73;;
61590;SDS011;57639;52.410;-1.966;2022-10-16T15:52:28;2.25;;;0.77;;
61590;SDS011;57639;52.410;-1.966;2022-10-16T15:55:45;1.98;;;0.50;;
61590;SDS011;57639;52.410;-1.966;2022-10-16T15:58:58;2.63;;;0.50;;
61590;SDS011;57639;52.410;-1.966;2022-10-16T16:02:08;3.10;;;0.77;;
61590;SDS011;57639;52.410;-1.966;2022-10-16T16:05:36;3.30;;;0.73;;
61590;SDS011;57639;52.410;-1.966;2022-10-16T16:08:54;3.60;;;1.10;;
61590;SDS011;57639;52.410;-1.966;2022-10-16T16:12:08;1.70;;;0.50;;
61590;SDS011;57639;52.410;-1.966;2022-10-16T16:15:16;2.90;;;0.50;;
61590;SDS011;57639;52.410;-1.966;2022-10-16T16:18:21;4.65;;;0.90;;
61590;SDS011;57639;52.410;-1.966;2022-10-16T16:21:29;1.92;;;0.70;;
61590;SDS011;57639;52.410;-1.966;2022-10-16T16:24:44;2.72;;;0.50;;
61590;SDS011;57639;52.410;-1.966;2022-10-16T16:30:59;2.33;;;0.90;;
61590;SDS011;57639;52.410;-1.966;2022-10-16T16:34:06;2.25;;;0.60;;
61590;SDS011;57639;52.410;-1.966;2022-10-16T16:37:14;3.53;;;1.00;;
61590;SDS011;57639;52.410;-1.966;2022-10-16T16:40:24;4.18;;;0.98;;
61590;SDS011;57639;52.410;-1.966;2022-10-16T16:43:32;4.68;;;0.90;;
61590;SDS011;57639;52.410;-1.966;2022-10-16T16:46:40;4.85;;;0.95;;
61590;SDS011;57639;52.410;-1.966;2022-10-16T16:49:49;3.53;;;1.00;;
61590;SDS011;57639;52.410;-1.966;2022-10-16T16:52:57;3.97;;;1.00;;
61590;SDS011;57639;52.410;-1.966;2022-10-16T16:56:07;2.55;;;0.80;;
61590;SDS011;57639;52.410;-1.966;2022-10-16T16:59:16;3.70;;;0.90;;
61590;SDS011;57639;52.410;-1.966;2022-10-16T17:05:32;3.75;;;1.00;;
61590;SDS011;57639;52.410;-1.966;2022-10-16T17:08:39;4.50;;;1.23;;
61590;SDS011;57639;52.410;-1.966;2022-10-16T17:11:50;3.58;;;1.00;;
61590;SDS011;57639;52.410;-1.966;2022-10-16T17:18:04;3.65;;;1.05;;
61590;SDS011;57639;52.410;-1.966;2022-10-16T17:21:12;5.50;;;1.30;;
61590;SDS011;57639;52.410;-1.966;2022-10-16T17:24:19;4.30;;;1.00;;
61590;SDS011;57639;52.410;-1.966;2022-10-16T17:27:30;5.32;;;1.10;;
61590;SDS011;57639;52.410;-1.966;2022-10-16T17:30:38;4.28;;;1.17;;
61590;SDS011;57639;52.410;-1.966;2022-10-16T17:33:47;3.95;;;1.02;;
61590;SDS011;57639;52.410;-1.966;2022-10-16T17:36:54;6.85;;;1.17;;
61590;SDS011;57639;52.410;-1.966;2022-10-16T17:40:02;6.03;;;1.00;;
61590;SDS011;57639;52.410;-1.966;2022-10-16T17:43:12;3.80;;;1.10;;
61590;SDS011;57639;52.410;-1.966;2022-10-16T17:46:21;3.75;;;2.40;;
61590;SDS011;57639;52.410;-1.966;2022-10-16T17:49:29;12.25;;;7.70;;
61590;SDS011;57639;52.410;-1.966;2022-10-16T17:52:36;14.50;;;9.68;;
61590;SDS011;57639;52.410;-1.966;2022-10-16T17:55:44;14.73;;;9.27;;
61590;SDS011;57639;52.410;-1.966;2022-10-16T17:58:56;14.95;;;9.98;;
61590;SDS011;57639;52.410;-1.966;2022-10-16T18:02:06;15.02;;;9.50;;
61590;SDS011;57639;52.410;-1.966;2022-10-16T18:05:16;13.52;;;8.82;;
61590;SDS011;57639;52.410;-1.966;2022-10-16T18:08:23;19.63;;;7.57;;
61590;SDS011;57639;52.410;-1.966;2022-10-16T18:11:31;10.23;;;6.40;;
61590;SDS011;57639;52.410;-1.966;2022-10-16T18:14:43;9.70;;;5.90;;
61590;SDS011;57639;52.410;-1.966;2022-10-16T18:17:50;9.00;;;5.28;;
61590;SDS011;57639;52.410;-1.966;2022-10-16T18:20:59;9.40;;;5.35;;
61590;SDS011;57639;52.410;-1.966;2022-10-16T18:24:09;9.93;;;5.35;;
61590;SDS011;57639;52.410;-1.966;2022-10-16T18:27:19;10.50;;;5.75;;
61590;SDS011;57639;52.410;-1.966;2022-10-16T18:30:31;8.60;;;5.18;;
61590;SDS011;57639;52.410;-1.966;2022-10-16T18:33:42;14.18;;;5.10;;
61590;SDS011;57639;52.410;-1.966;2022-10-16T18:36:56;9.38;;;4.85;;
61590;SDS011;57639;52.410;-1.966;2022-10-16T18:40:08;10.43;;;4.95;;
61590;SDS011;57639;52.410;-1.966;2022-10-16T18:43:21;8.88;;;4.78;;
61590;SDS011;57639;52.410;-1.966;2022-10-16T18:46:42;8.18;;;4.47;;
61590;SDS011;57639;52.410;-1.966;2022-10-16T18:49:56;7.78;;;4.53;;
61590;SDS011;57639;52.410;-1.966;2022-10-16T18:53:17;9.35;;;4.38;;
61590;SDS011;57639;52.410;-1.966;2022-10-16T18:56:37;8.50;;;4.18;;
61590;SDS011;57639;52.410;-1.966;2022-10-16T18:59:53;6.82;;;3.58;;
61590;SDS011;57639;52.410;-1.966;2022-10-16T19:03:10;6.78;;;3.67;;
61590;SDS011;57639;52.410;-1.966;2022-10-16T19:06:26;6.63;;;3.33;;
61590;SDS011;57639;52.410;-1.966;2022-10-16T19:09:43;6.88;;;3.38;;
61590;SDS011;57639;52.410;-1.966;2022-10-16T19:12:58;8.00;;;3.38;;
61590;SDS011;57639;52.410;-1.966;2022-10-16T19:16:17;5.38;;;3.00;;
61590;SDS011;57639;52.410;-1.966;2022-10-16T19:19:32;4.90;;;2.80;;
61590;SDS011;57639;52.410;-1.966;2022-10-16T19:22:40;6.20;;;2.75;;
61590;SDS011;57639;52.410;-1.966;2022-10-16T19:26:00;8.65;;;3.10;;
61590;SDS011;57639;52.410;-1.966;2022-10-16T19:29:08;6.77;;;2.90;;
61590;SDS011;57639;52.410;-1.966;2022-10-16T19:32:16;5.38;;;2.42;;
61590;SDS011;57639;52.410;-1.966;2022-10-16T19:35:28;4.45;;;2.40;;
61590;SDS011;57639;52.410;-1.966;2022-10-16T19:38:36;7.07;;;2.75;;
61590;SDS011;57639;52.410;-1.966;2022-10-16T19:41:46;6.13;;;2.47;;